METAR Data
IDs: Format: Raw Decoded Include TAF

Data at: 2150 UTC 01 Dec 2021

KSEA 012053Z 20017G25KT 10SM FEW020 BKN110 OVC250 13/09 A3014 RMK AO2 PK WND 23027/2026 SLP211 T01330094 58009